createdAt,value
2022-08-05T00:02:07.399Z,8.57
2022-08-05T00:04:41.341Z,6.78
2022-08-05T00:07:21.728Z,7.28
2022-08-05T00:10:08.583Z,6.35
2022-08-05T00:12:56.404Z,7.13
2022-08-05T00:15:55.110Z,5.20
2022-08-05T00:18:41.003Z,7.97
2022-08-05T00:21:26.877Z,6.95
2022-08-05T00:24:10.691Z,10.02
2022-08-05T00:26:51.765Z,7.28
2022-08-05T00:29:27.614Z,8.10
2022-08-05T00:32:15.157Z,6.53
2022-08-05T00:35:05.582Z,6.15
2022-08-05T00:37:52.886Z,7.65
2022-08-05T00:40:29.301Z,5.65
2022-08-05T00:43:03.033Z,5.65
2022-08-05T00:45:43.640Z,10.73
2022-08-05T00:48:27.572Z,7.38
2022-08-05T00:51:49.900Z,9.20
2022-08-05T00:54:02.489Z,7.25
2022-08-05T00:56:36.487Z,6.60
2022-08-05T00:59:11.143Z,7.68
2022-08-05T01:01:48.469Z,8.70
2022-08-05T01:04:26.842Z,7.82
2022-08-05T01:07:05.128Z,8.82
2022-08-05T01:09:38.416Z,7.40
2022-08-05T01:12:18.399Z,7.25
2022-08-05T01:15:05.085Z,7.28
2022-08-05T01:17:47.123Z,8.07
2022-08-05T01:21:04.025Z,7.22
2022-08-05T01:24:14.318Z,8.70
2022-08-05T01:27:24.184Z,6.25
2022-08-05T01:30:02.701Z,8.00
2022-08-05T01:32:40.719Z,7.72
2022-08-05T01:35:50.678Z,8.30
2022-08-05T01:38:27.357Z,6.00
2022-08-05T01:41:03.814Z,10.80
2022-08-05T01:43:41.568Z,8.00
2022-08-05T01:46:42.120Z,7.70
2022-08-05T01:49:22.932Z,8.80
2022-08-05T01:52:02.393Z,11.95
2022-08-05T01:54:57.758Z,12.82
2022-08-05T01:58:11.256Z,11.02
2022-08-05T02:00:33.476Z,9.65
2022-08-05T02:03:31.610Z,9.02
2022-08-05T02:06:33.492Z,9.98
2022-08-05T02:09:01.054Z,11.98
2022-08-05T02:12:06.947Z,10.82
2022-08-05T02:14:47.918Z,12.98
2022-08-05T02:18:30.718Z,10.82
2022-08-05T02:20:25.331Z,10.45
2022-08-05T02:23:03.107Z,11.43
2022-08-05T02:25:50.280Z,11.32
2022-08-05T02:28:28.942Z,9.43
2022-08-05T02:31:14.370Z,13.77
2022-08-05T02:33:57.749Z,10.45
2022-08-05T02:36:32.482Z,14.13
2022-08-05T02:39:09.188Z,12.90
2022-08-05T02:42:00.714Z,11.05
2022-08-05T02:44:37.774Z,11.75
2022-08-05T02:47:13.028Z,14.52
2022-08-05T02:49:49.233Z,13.18
2022-08-05T02:52:29.403Z,10.45
2022-08-05T02:55:06.545Z,10.32
2022-08-05T02:58:09.653Z,11.68
2022-08-05T03:00:39.182Z,11.75
2022-08-05T03:03:18.909Z,13.07
2022-08-05T03:06:54.599Z,10.88
2022-08-05T03:08:46.521Z,12.45
2022-08-05T03:11:54.443Z,8.77
2022-08-05T03:14:19.979Z,13.98
2022-08-05T03:16:53.363Z,10.85
2022-08-05T03:19:34.044Z,9.57
2022-08-05T03:22:16.695Z,9.73
2022-08-05T03:24:52.492Z,12.13
2022-08-05T03:27:39.380Z,10.95
2022-08-05T03:30:20.761Z,11.18
2022-08-05T03:32:54.810Z,9.07
2022-08-05T03:35:28.944Z,8.63
2022-08-05T03:38:02.976Z,12.15
2022-08-05T03:40:41.059Z,9.80
2022-08-05T03:44:09.870Z,7.75
2022-08-05T03:46:12.523Z,7.68
2022-08-05T03:48:46.902Z,10.65
2022-08-05T03:52:49.414Z,10.38
2022-08-05T03:55:53.614Z,11.85
2022-08-05T03:57:52.970Z,13.82
2022-08-05T04:00:31.262Z,10.13
2022-08-05T04:03:06.624Z,12.60
2022-08-05T04:05:42.485Z,10.52
2022-08-05T04:08:37.844Z,7.38
2022-08-05T04:12:24.420Z,7.25
2022-08-05T04:16:10.679Z,10.27
2022-08-05T04:19:18.092Z,5.78
2022-08-05T04:22:08.561Z,8.65
2022-08-05T04:24:52.720Z,5.43
2022-08-05T04:27:33.179Z,6.90
2022-08-05T04:30:17.278Z,5.65
2022-08-05T04:32:50.307Z,5.13
2022-08-05T04:35:23.640Z,4.68
2022-08-05T04:38:02.215Z,5.20
2022-08-05T04:40:41.654Z,4.88
2022-08-05T04:43:22.109Z,5.68
2022-08-05T04:45:55.737Z,6.53
2022-08-05T04:48:29.547Z,5.63
2022-08-05T04:51:11.120Z,4.32
2022-08-05T04:53:44.595Z,5.72
2022-08-05T04:56:34.692Z,5.20
2022-08-05T04:59:22.166Z,8.00
2022-08-05T05:02:07.417Z,7.47
2022-08-05T05:04:51.693Z,8.73
2022-08-05T05:07:29.701Z,9.40
2022-08-05T05:10:06.607Z,9.10
2022-08-05T05:12:39.567Z,10.60
2022-08-05T05:15:12.987Z,5.30
2022-08-05T05:17:57.019Z,3.92
2022-08-05T05:20:31.059Z,3.53
2022-08-05T05:23:08.252Z,2.80
2022-08-05T05:25:52.767Z,4.40
2022-08-05T05:28:25.833Z,3.15
2022-08-05T05:31:02.281Z,3.17
2022-08-05T05:33:57.071Z,3.30
2022-08-05T05:36:32.225Z,2.83
2022-08-05T05:39:05.507Z,2.50
2022-08-05T05:41:44.099Z,3.58
2022-08-05T05:44:36.455Z,3.65
2022-08-05T05:47:13.325Z,3.17
2022-08-05T05:49:56.921Z,2.25
2022-08-05T05:52:38.118Z,5.10
2022-08-05T05:55:15.125Z,3.00
2022-08-05T05:57:52.863Z,2.92
2022-08-05T06:00:27.746Z,3.13
2022-08-05T06:03:28.624Z,2.20
2022-08-05T06:05:58.114Z,2.95
2022-08-05T06:08:32.240Z,2.53
2022-08-05T06:11:06.549Z,3.13
2022-08-05T06:13:50.458Z,3.53
2022-08-05T06:16:33.040Z,3.72
2022-08-05T06:19:10.213Z,2.55
2022-08-05T06:21:49.802Z,3.40
2022-08-05T06:24:27.309Z,3.67
2022-08-05T06:27:00.974Z,3.78
2022-08-05T06:29:51.926Z,3.33
2022-08-05T06:32:29.909Z,2.53
2022-08-05T06:35:06.037Z,2.97
2022-08-05T06:37:57.826Z,3.00
2022-08-05T06:40:33.001Z,2.58
2022-08-05T06:43:06.160Z,2.63
2022-08-05T06:46:03.789Z,3.55
2022-08-05T06:48:55.335Z,2.35
2022-08-05T06:51:31.321Z,2.42
2022-08-05T06:54:04.826Z,3.83
2022-08-05T06:56:37.917Z,3.15
2022-08-05T06:59:14.373Z,3.20
2022-08-05T07:01:48.146Z,4.82
2022-08-05T07:04:26.057Z,3.08
2022-08-05T07:07:00.110Z,3.35
2022-08-05T07:09:33.127Z,2.88
2022-08-05T07:12:21.674Z,4.18
2022-08-05T07:15:13.690Z,7.93
2022-08-05T07:18:09.288Z,4.10
2022-08-05T07:20:43.781Z,4.00
2022-08-05T07:23:26.245Z,6.07
2022-08-05T07:26:03.210Z,3.75
2022-08-05T07:28:36.449Z,4.60
2022-08-05T07:31:09.960Z,4.25
2022-08-05T07:33:45.127Z,3.55
2022-08-05T07:36:19.936Z,4.80
2022-08-05T07:40:26.556Z,3.28
2022-08-05T07:42:33.796Z,4.97
2022-08-05T07:45:10.357Z,5.15
2022-08-05T07:47:49.421Z,3.55
2022-08-05T07:50:33.540Z,5.05
2022-08-05T07:53:07.146Z,4.57
2022-08-05T07:55:44.533Z,4.43
2022-08-05T07:58:58.593Z,4.75
2022-08-05T08:01:27.878Z,4.00
2022-08-05T08:04:03.215Z,3.78
2022-08-05T08:06:37.568Z,3.15
2022-08-05T08:09:11.378Z,4.40
2022-08-05T08:11:47.846Z,3.97
2022-08-05T08:14:27.256Z,3.65
2022-08-05T08:17:00.851Z,3.90
2022-08-05T08:20:10.080Z,3.80
2022-08-05T08:22:30.230Z,4.35
2022-08-05T08:25:15.650Z,4.50
2022-08-05T08:27:51.437Z,5.22
2022-08-05T08:30:32.463Z,4.40
2022-08-05T08:33:13.968Z,3.90
2022-08-05T08:35:53.137Z,4.53
2022-08-05T08:38:41.247Z,4.70
2022-08-05T08:41:15.788Z,5.00
2022-08-05T08:45:19.016Z,4.38
2022-08-05T08:47:01.619Z,4.88
2022-08-05T08:50:22.656Z,3.90
2022-08-05T08:52:35.686Z,4.85
2022-08-05T08:55:13.419Z,5.22
2022-08-05T08:57:58.445Z,3.38
2022-08-05T09:00:32.114Z,5.95
2022-08-05T09:03:09.351Z,3.95
2022-08-05T09:06:07.539Z,3.47
2022-08-05T09:08:40.081Z,4.30
2022-08-05T09:11:15.190Z,4.88
2022-08-05T09:14:01.120Z,4.13
2022-08-05T09:16:42.201Z,6.20
2022-08-05T09:19:27.655Z,6.05
2022-08-05T09:22:22.078Z,4.90
2022-08-05T09:25:02.177Z,4.22
2022-08-05T09:28:04.891Z,4.53
2022-08-05T09:31:43.490Z,4.38
2022-08-05T09:34:13.018Z,7.78
2022-08-05T09:36:54.402Z,5.40
2022-08-05T09:39:41.961Z,4.63
2022-08-05T09:42:24.460Z,3.53
2022-08-05T09:45:17.426Z,4.68
2022-08-05T09:48:00.520Z,3.85
2022-08-05T09:50:45.170Z,3.67
2022-08-05T09:53:26.212Z,4.53
2022-08-05T09:56:13.177Z,4.50
2022-08-05T09:59:09.641Z,3.25
2022-08-05T10:01:58.281Z,3.55
2022-08-05T10:04:38.223Z,4.32
2022-08-05T10:07:19.580Z,3.10
2022-08-05T10:10:15.324Z,3.92
2022-08-05T10:12:53.658Z,4.60
2022-08-05T10:15:34.094Z,4.38
2022-08-05T10:18:22.790Z,4.38
2022-08-05T10:21:06.350Z,3.42
2022-08-05T10:23:58.974Z,4.05
2022-08-05T10:26:35.422Z,5.10
2022-08-05T10:29:09.565Z,3.20
2022-08-05T10:32:54.508Z,3.22
2022-08-05T10:34:35.774Z,3.92
2022-08-05T10:37:13.863Z,3.50
2022-08-05T10:40:03.987Z,3.60
2022-08-05T10:42:47.458Z,3.30
2022-08-05T10:45:39.722Z,3.88
2022-08-05T10:48:57.105Z,4.03
2022-08-05T10:51:59.805Z,3.92
2022-08-05T10:54:47.161Z,2.65
2022-08-05T10:57:33.907Z,3.35
2022-08-05T11:00:20.083Z,2.97
2022-08-05T11:03:25.169Z,3.47
2022-08-05T11:06:15.837Z,2.25
2022-08-05T11:09:16.325Z,2.53
2022-08-05T11:11:53.536Z,3.95
2022-08-05T11:15:01.018Z,2.92
2022-08-05T11:17:57.438Z,2.70
2022-08-05T11:20:41.651Z,2.58
2022-08-05T11:24:05.093Z,2.33
2022-08-05T11:26:32.452Z,2.20
2022-08-05T11:29:12.936Z,2.83
2022-08-05T11:31:56.300Z,2.40
2022-08-05T11:34:37.817Z,2.47
2022-08-05T11:38:29.106Z,2.20
2022-08-05T11:40:04.727Z,2.47
2022-08-05T11:42:45.885Z,3.25
2022-08-05T11:46:15.572Z,2.83
2022-08-05T11:48:12.636Z,2.65
2022-08-05T11:50:51.515Z,3.40
2022-08-05T11:53:25.619Z,3.92
2022-08-05T11:56:00.595Z,2.60
2022-08-05T11:58:36.254Z,3.80
2022-08-05T12:01:10.660Z,4.10
2022-08-05T12:03:55.821Z,3.30
2022-08-05T12:06:29.648Z,2.53
2022-08-05T12:09:05.580Z,2.53
2022-08-05T12:11:39.780Z,2.25
2022-08-05T12:14:13.988Z,2.45
2022-08-05T12:16:48.146Z,2.42
2022-08-05T12:20:17.214Z,3.38
2022-08-05T12:22:20.004Z,2.20
2022-08-05T12:24:55.989Z,2.47
2022-08-05T12:27:33.367Z,2.55
2022-08-05T12:30:15.447Z,2.20
2022-08-05T12:32:56.324Z,1.90
2022-08-05T12:35:37.164Z,2.70
2022-08-05T12:38:13.141Z,1.90
2022-08-05T12:40:48.364Z,2.28
2022-08-05T12:43:23.610Z,2.55
2022-08-05T12:45:56.963Z,2.13
2022-08-05T12:48:38.948Z,2.30
2022-08-05T12:52:10.028Z,2.85
2022-08-05T12:54:23.196Z,2.28
2022-08-05T12:57:02.113Z,1.60
2022-08-05T13:01:57.717Z,1.83
2022-08-05T13:02:50.991Z,3.72
2022-08-05T13:05:37.335Z,1.90
2022-08-05T13:08:11.019Z,1.40
2022-08-05T13:10:50.220Z,1.75
2022-08-05T13:14:04.929Z,2.35
2022-08-05T13:16:24.981Z,1.73
2022-08-05T13:18:59.135Z,3.08
2022-08-05T13:21:38.061Z,1.80
2022-08-05T13:24:36.240Z,1.60
2022-08-05T13:27:37.327Z,2.20
2022-08-05T13:30:36.805Z,1.85
2022-08-05T13:33:07.984Z,1.60
2022-08-05T13:35:47.300Z,2.80
2022-08-05T13:38:31.096Z,1.73
2022-08-05T13:41:09.386Z,1.55
2022-08-05T13:43:54.502Z,1.85
2022-08-05T13:46:43.916Z,1.98
2022-08-05T13:49:20.931Z,1.70
2022-08-05T13:51:54.265Z,2.22
2022-08-05T13:54:27.364Z,1.80
2022-08-05T13:57:00.198Z,2.20
2022-08-05T13:59:33.640Z,1.63
2022-08-05T14:02:11.119Z,1.70
2022-08-05T14:05:11.445Z,2.70
2022-08-05T14:08:00.249Z,1.92
2022-08-05T14:10:38.898Z,1.88
2022-08-05T14:13:11.930Z,1.58
2022-08-05T14:16:04.532Z,1.70
2022-08-05T14:18:39.647Z,2.53
2022-08-05T14:22:06.970Z,2.40
2022-08-05T14:24:09.823Z,1.60
2022-08-05T14:27:02.088Z,4.07
2022-08-05T14:29:35.883Z,1.50
2022-08-05T14:32:15.904Z,1.40
2022-08-05T14:34:59.770Z,1.40
2022-08-05T14:37:45.547Z,2.22
2022-08-05T14:40:24.552Z,1.73
2022-08-05T14:42:57.586Z,1.45
2022-08-05T14:45:31.389Z,1.35
2022-08-05T14:48:05.983Z,1.42
2022-08-05T14:50:41.863Z,1.60
2022-08-05T14:53:15.780Z,1.40
2022-08-05T14:55:52.451Z,1.73
2022-08-05T14:58:25.612Z,2.95
2022-08-05T15:01:00.272Z,1.73
2022-08-05T15:03:39.316Z,1.42
2022-08-05T15:06:15.355Z,1.48
2022-08-05T15:08:59.233Z,2.10
2022-08-05T15:11:51.372Z,2.03
2022-08-05T15:14:35.814Z,1.38
2022-08-05T15:17:45.808Z,2.92
2022-08-05T15:20:17.041Z,1.42
2022-08-05T15:22:54.903Z,1.83
2022-08-05T15:25:41.087Z,1.77
2022-08-05T15:28:27.410Z,2.92
2022-08-05T15:31:03.639Z,2.60
2022-08-05T15:34:04.449Z,2.17
2022-08-05T15:36:32.372Z,1.65
2022-08-05T15:40:41.275Z,2.35
2022-08-05T15:42:01.566Z,2.03
2022-08-05T15:44:55.083Z,1.50
2022-08-05T15:47:28.169Z,2.80
2022-08-05T15:50:02.455Z,2.22
2022-08-05T15:52:52.977Z,1.77
2022-08-05T15:56:02.437Z,2.88
2022-08-05T15:58:23.107Z,1.30
2022-08-05T16:01:04.210Z,2.25
2022-08-05T16:03:50.805Z,2.60
2022-08-05T16:06:23.925Z,2.38
2022-08-05T16:08:56.808Z,4.18
2022-08-05T16:11:42.429Z,2.63
2022-08-05T16:14:17.042Z,2.58
2022-08-05T16:16:51.021Z,3.28
2022-08-05T16:20:02.946Z,2.55
2022-08-05T16:22:17.577Z,3.60
2022-08-05T16:24:51.642Z,1.42
2022-08-05T16:27:47.393Z,1.77
2022-08-05T16:30:26.415Z,2.15
2022-08-05T16:33:02.263Z,2.70
2022-08-05T16:35:43.098Z,2.17
2022-08-05T16:38:25.423Z,2.67
2022-08-05T16:41:02.363Z,1.30
2022-08-05T16:43:56.415Z,1.40
2022-08-05T16:46:29.772Z,2.05
2022-08-05T16:49:05.760Z,2.25
2022-08-05T16:51:50.438Z,5.22
2022-08-05T16:54:32.924Z,1.58
2022-08-05T16:57:14.886Z,2.83
2022-08-05T17:00:04.290Z,1.83
2022-08-05T17:02:40.403Z,3.38
2022-08-05T17:05:13.289Z,2.28
2022-08-05T17:07:54.988Z,1.60
2022-08-05T17:10:30.519Z,1.77
2022-08-05T17:13:04.610Z,1.55
2022-08-05T17:15:48.623Z,3.17
2022-08-05T17:18:25.224Z,1.50
2022-08-05T17:20:58.721Z,1.75
2022-08-05T17:24:05.925Z,2.63
2022-08-05T17:26:24.879Z,1.52
2022-08-05T17:28:58.720Z,2.30
2022-08-05T17:31:41.475Z,2.75
2022-08-05T17:34:30.145Z,1.80
2022-08-05T17:37:40.648Z,1.70
2022-08-05T17:40:00.050Z,3.03
2022-08-05T17:42:33.403Z,2.22
2022-08-05T17:45:17.758Z,2.85
2022-08-05T17:47:56.072Z,4.40
2022-08-05T17:50:30.705Z,4.45
2022-08-05T17:53:05.263Z,1.70
2022-08-05T17:55:39.885Z,7.03
2022-08-05T17:58:14.491Z,4.20
2022-08-05T18:00:50.700Z,2.28
2022-08-05T18:03:56.576Z,1.50
2022-08-05T18:06:17.974Z,4.75
2022-08-05T18:09:03.698Z,3.85
2022-08-05T18:11:36.949Z,2.40
2022-08-05T18:14:13.376Z,2.25
2022-08-05T18:16:53.373Z,1.60
2022-08-05T18:19:26.602Z,3.58
2022-08-05T18:22:08.962Z,2.65
2022-08-05T18:24:44.769Z,2.70
2022-08-05T18:27:18.480Z,2.25
2022-08-05T18:29:54.547Z,4.85
2022-08-05T18:32:29.563Z,3.65
2022-08-05T18:35:02.872Z,2.55
2022-08-05T18:37:39.878Z,1.35
2022-08-05T18:41:49.973Z,2.35
2022-08-05T18:43:09.057Z,1.63
2022-08-05T18:45:49.856Z,1.52
2022-08-05T18:48:31.171Z,1.33
2022-08-05T18:52:06.597Z,3.63
2022-08-05T18:54:17.426Z,2.85
2022-08-05T18:56:51.028Z,1.42
2022-08-05T18:59:43.383Z,2.10
2022-08-05T19:02:36.520Z,1.67
2022-08-05T19:06:12.227Z,2.25
2022-08-05T19:08:13.381Z,1.38
2022-08-05T19:10:46.872Z,1.23
2022-08-05T19:13:19.974Z,3.13
2022-08-05T19:15:57.485Z,1.80
2022-08-05T19:18:39.712Z,5.72
2022-08-05T19:21:14.507Z,1.33
2022-08-05T19:24:07.035Z,1.77
2022-08-05T19:26:54.070Z,2.67
2022-08-05T19:29:36.522Z,2.00
2022-08-05T19:32:11.462Z,1.35
2022-08-05T19:34:54.555Z,1.08
2022-08-05T19:37:47.103Z,3.00
2022-08-05T19:40:24.307Z,1.20
2022-08-05T19:43:00.820Z,1.92
2022-08-05T19:45:38.662Z,1.55
2022-08-05T19:48:27.576Z,2.35
2022-08-05T19:51:05.994Z,1.85
2022-08-05T19:54:04.524Z,1.92
2022-08-05T19:56:34.793Z,2.08
2022-08-05T19:59:51.618Z,2.10
2022-08-05T20:02:01.388Z,1.70
2022-08-05T20:04:35.902Z,1.17
2022-08-05T20:07:10.454Z,2.10
2022-08-05T20:09:53.595Z,1.08
2022-08-05T20:12:28.513Z,0.88
2022-08-05T20:15:01.956Z,1.67
2022-08-05T20:17:35.188Z,1.25
2022-08-05T20:20:11.147Z,1.77
2022-08-05T20:22:44.733Z,2.10
2022-08-05T20:25:20.087Z,2.38
2022-08-05T20:27:56.822Z,0.98
2022-08-05T20:30:30.612Z,1.30
2022-08-05T20:33:03.614Z,3.83
2022-08-05T20:35:40.604Z,2.00
2022-08-05T20:38:22.775Z,1.67
2022-08-05T20:41:00.784Z,3.17
2022-08-05T20:43:59.176Z,1.83
2022-08-05T20:46:31.303Z,2.17
2022-08-05T20:49:06.277Z,1.73
2022-08-05T20:51:40.980Z,3.20
2022-08-05T20:54:14.402Z,2.40
2022-08-05T20:56:47.354Z,0.88
2022-08-05T20:59:27.137Z,1.50
2022-08-05T21:02:18.087Z,1.88
2022-08-05T21:04:51.622Z,1.27
2022-08-05T21:07:24.400Z,0.90
2022-08-05T21:09:58.343Z,1.00
2022-08-05T21:12:31.265Z,1.58
2022-08-05T21:15:06.435Z,1.73
2022-08-05T21:17:40.032Z,1.30
2022-08-05T21:20:13.293Z,3.35
2022-08-05T21:23:07.432Z,2.38
2022-08-05T21:25:48.241Z,0.90
2022-08-05T21:28:23.840Z,1.33
2022-08-05T21:31:03.724Z,0.93
2022-08-05T21:33:40.108Z,1.40
2022-08-05T21:36:13.512Z,2.67
2022-08-05T21:39:00.539Z,1.63
2022-08-05T21:41:34.201Z,1.95
2022-08-05T21:44:08.837Z,2.00
2022-08-05T21:46:44.360Z,1.63
2022-08-05T21:49:58.566Z,1.25
2022-08-05T21:52:28.005Z,1.95
2022-08-05T21:55:06.354Z,2.45
2022-08-05T21:57:42.741Z,1.92
2022-08-05T22:00:16.456Z,1.23
2022-08-05T22:02:49.184Z,1.55
2022-08-05T22:05:23.231Z,3.70
2022-08-05T22:08:02.208Z,1.50
2022-08-05T22:10:35.573Z,0.90
2022-08-05T22:14:06.531Z,1.95
2022-08-05T22:16:11.432Z,1.50
2022-08-05T22:18:58.596Z,1.10
2022-08-05T22:21:31.973Z,1.48
2022-08-05T22:24:40.159Z,3.80
2022-08-05T22:28:11.418Z,2.47
2022-08-05T22:30:34.896Z,3.35
2022-08-05T22:33:15.484Z,1.58
2022-08-05T22:35:49.504Z,1.70
2022-08-05T22:38:22.601Z,2.20
2022-08-05T22:40:58.627Z,1.20
2022-08-05T22:43:37.066Z,2.35
2022-08-05T22:46:13.640Z,0.93
2022-08-05T22:48:56.322Z,3.35
2022-08-05T22:52:03.089Z,1.00
2022-08-05T22:54:22.258Z,1.67
2022-08-05T22:56:56.535Z,1.25
2022-08-05T22:59:48.333Z,2.40
2022-08-05T23:02:29.390Z,2.05
2022-08-05T23:05:05.006Z,1.42
2022-08-05T23:07:48.574Z,1.60
2022-08-05T23:10:23.483Z,2.33
2022-08-05T23:12:57.146Z,1.08
2022-08-05T23:15:35.191Z,1.00
2022-08-05T23:18:11.862Z,1.15
2022-08-05T23:20:49.083Z,0.95
2022-08-05T23:23:22.311Z,1.15
2022-08-05T23:25:55.648Z,1.73
2022-08-05T23:28:30.771Z,1.15
2022-08-05T23:31:17.013Z,1.27
2022-08-05T23:34:06.151Z,2.10
2022-08-05T23:36:44.272Z,1.98
2022-08-05T23:39:32.158Z,2.95
2022-08-05T23:42:28.983Z,1.50
2022-08-05T23:45:03.195Z,0.85
2022-08-05T23:47:36.273Z,0.82
2022-08-05T23:50:24.263Z,2.53
2022-08-05T23:52:57.133Z,0.88
2022-08-05T23:55:31.530Z,6.25
2022-08-05T23:58:04.429Z,0.95
